Time;durP1;ratioP1;P1;durP2;ratioP2;P2;SDS_P1;SDS_P2;PMS_P1;PMS_P2;Temp;Humidity;BMP_temperature;BMP_pressure;BME280_temperature;BME280_humidity;BME280_pressure;Samples;Min_cycle;Max_cycle;Signal;HPM_P1;HPM_P2
2023/08/05 00:01:40;;;;;;;1.00;1.00;;;26.00;57.80;;;;;;219457;1286;22559;-52
2023/08/05 00:06:44;;;;;;;1.20;1.10;;;26.00;57.80;;;;;;219486;1283;22539;-53
2023/08/05 00:11:49;;;;;;;1.30;1.10;;;26.00;58.10;;;;;;219344;1286;22552;-52
2023/08/05 00:16:53;;;;;;;1.60;1.10;;;26.00;57.80;;;;;;219424;1280;22595;-54
2023/08/05 00:21:58;;;;;;;1.20;1.00;;;26.00;57.80;;;;;;219421;1280;22553;-55
2023/08/05 00:27:03;;;;;;;1.20;1.10;;;26.00;57.70;;;;;;219299;1283;25287;-55
2023/08/05 00:32:07;;;;;;;1.50;1.40;;;26.00;57.90;;;;;;219541;1285;22800;-51
2023/08/05 00:37:12;;;;;;;1.40;1.20;;;25.90;57.70;;;;;;219423;1280;23929;-54
2023/08/05 00:42:19;;;;;;;1.30;1.20;;;26.00;57.80;;;;;;219376;1286;22645;-52
2023/08/05 00:47:23;;;;;;;1.60;1.50;;;26.00;58.10;;;;;;219394;1273;24374;-52
2023/08/05 00:52:29;;;;;;;1.60;1.30;;;25.90;57.70;;;;;;219762;1276;22878;-49
2023/08/05 00:57:34;;;;;;;1.30;1.20;;;26.00;57.70;;;;;;219753;1273;24230;-53
2023/08/05 01:02:38;;;;;;;1.50;1.40;;;25.90;57.60;;;;;;219440;1287;24384;-51
2023/08/05 01:07:44;;;;;;;1.50;1.40;;;25.90;57.70;;;;;;219600;1283;25430;-55
2023/08/05 01:12:49;;;;;;;1.50;1.40;;;25.90;58.00;;;;;;219433;1286;23500;-55
2023/08/05 01:17:55;;;;;;;2.10;1.40;;;25.90;57.80;;;;;;219290;1274;22674;-58
2023/08/05 01:23:08;;;;;;;1.50;1.40;;;26.10;57.40;;;;;;219449;1280;24299;-60
2023/08/05 01:28:14;;;;;;;1.50;1.40;;;26.20;57.90;;;;;;219452;1276;22527;-56
2023/08/05 01:33:19;;;;;;;2.30;1.30;;;26.20;57.30;;;;;;219597;1283;22543;-56
2023/08/05 01:38:23;;;;;;;1.60;1.50;;;26.10;57.10;;;;;;219463;1285;25421;-56
2023/08/05 01:43:28;;;;;;;3.40;1.20;;;26.00;57.70;;;;;;219424;1283;25487;-55
2023/08/05 01:48:33;;;;;;;2.00;1.30;;;26.00;57.80;;;;;;219342;1278;22671;-56
2023/08/05 01:53:37;;;;;;;1.60;1.40;;;26.10;57.60;;;;;;219368;1279;26375;-57
2023/08/05 01:58:41;;;;;;;1.70;1.60;;;26.00;58.10;;;;;;219208;1286;25421;-57
2023/08/05 02:03:46;;;;;;;7.60;1.90;;;26.00;58.90;;;;;;219450;1286;24118;-55
2023/08/05 02:08:51;;;;;;;3.10;1.70;;;26.10;59.30;;;;;;219474;1279;24404;-59
2023/08/05 02:13:55;;;;;;;7.50;2.60;;;26.10;59.60;;;;;;219027;1280;463509;-55
2023/08/05 02:19:00;;;;;;;1.80;1.50;;;26.10;59.80;;;;;;219270;1273;24234;-57
2023/08/05 02:24:09;;;;;;;2.30;1.60;;;26.00;59.50;;;;;;219054;1286;22773;-56
2023/08/05 02:29:13;;;;;;;1.50;1.40;;;26.00;59.40;;;;;;219014;1283;22678;-57
2023/08/05 02:34:18;;;;;;;1.80;1.50;;;26.10;59.00;;;;;;219409;1280;22541;-56
2023/08/05 02:39:22;;;;;;;1.80;1.60;;;26.10;58.80;;;;;;219181;1283;22540;-56
2023/08/05 02:44:26;;;;;;;1.80;1.60;;;26.00;59.20;;;;;;219163;1280;23044;-56
2023/08/05 02:49:32;;;;;;;4.00;1.80;;;26.00;58.90;;;;;;218990;1282;22540;-56
2023/08/05 02:54:36;;;;;;;1.60;1.50;;;26.00;58.70;;;;;;219455;1280;25249;-57
2023/08/05 02:59:40;;;;;;;2.20;1.60;;;26.00;58.80;;;;;;218964;1283;22531;-54
2023/08/05 03:04:45;;;;;;;3.20;1.40;;;26.00;59.30;;;;;;219294;1275;22569;-57
2023/08/05 03:09:49;;;;;;;1.80;1.70;;;26.00;58.60;;;;;;219312;1286;22523;-57
2023/08/05 03:14:55;;;;;;;1.70;1.50;;;26.00;58.60;;;;;;219256;1286;24107;-57
2023/08/05 03:20:04;;;;;;;1.70;1.60;;;26.00;58.60;;;;;;219196;1283;24090;-57
2023/08/05 03:25:10;;;;;;;1.60;1.40;;;26.00;58.60;;;;;;219403;1271;22551;-57
2023/08/05 03:30:15;;;;;;;1.60;1.50;;;26.00;58.60;;;;;;219349;1280;22808;-56
2023/08/05 03:35:20;;;;;;;2.80;1.60;;;25.90;58.60;;;;;;219289;1283;23026;-55
2023/08/05 03:40:25;;;;;;;1.70;1.40;;;25.90;58.90;;;;;;219136;1283;22781;-54
2023/08/05 03:45:29;;;;;;;2.00;1.40;;;25.90;58.50;;;;;;219228;1280;24198;-54
2023/08/05 03:50:34;;;;;;;1.60;1.50;;;25.90;58.60;;;;;;219355;1286;22545;-54
2023/08/05 03:55:39;;;;;;;1.90;1.60;;;25.80;59.30;;;;;;219188;1283;22673;-53
2023/08/05 04:00:44;;;;;;;1.40;1.30;;;25.80;60.10;;;;;;219013;1286;22771;-55
2023/08/05 04:05:49;;;;;;;1.70;1.60;;;25.80;59.00;;;;;;219336;1287;22542;-54
2023/08/05 04:10:54;;;;;;;1.70;1.60;;;25.80;59.40;;;;;;219555;1283;24265;-54
2023/08/05 04:16:03;;;;;;;3.20;1.70;;;25.80;59.40;;;;;;219510;1264;22527;-55
2023/08/05 04:21:10;;;;;;;2.20;1.70;;;25.80;59.60;;;;;;219607;1286;25303;-53
2023/08/05 04:26:14;;;;;;;1.70;1.60;;;25.80;58.80;;;;;;219554;1286;25296;-53
2023/08/05 04:31:18;;;;;;;1.60;1.50;;;25.80;58.90;;;;;;219552;1286;22553;-55
2023/08/05 04:36:23;;;;;;;1.50;1.40;;;25.80;58.80;;;;;;219368;1280;22529;-53
2023/08/05 04:41:27;;;;;;;1.60;1.50;;;25.80;59.00;;;;;;219449;1283;22514;-52
2023/08/05 04:46:32;;;;;;;1.80;1.60;;;25.80;59.10;;;;;;219599;1285;22648;-54
2023/08/05 04:51:36;;;;;;;1.50;1.20;;;25.70;58.90;;;;;;219372;1280;24243;-53
2023/08/05 04:56:40;;;;;;;1.50;1.40;;;25.80;58.70;;;;;;219408;1286;25468;-54
2023/08/05 05:01:45;;;;;;;1.70;1.50;;;25.80;58.90;;;;;;219481;1286;22524;-57
2023/08/05 05:06:49;;;;;;;1.50;1.40;;;25.70;58.60;;;;;;219337;1276;22602;-54
2023/08/05 05:11:54;;;;;;;1.50;1.40;;;25.70;58.70;;;;;;219361;1279;22523;-54
2023/08/05 05:16:58;;;;;;;1.70;1.40;;;25.70;59.10;;;;;;219429;1283;22541;-54
2023/08/05 05:22:03;;;;;;;1.50;1.40;;;25.70;59.10;;;;;;219806;1286;23872;-55
2023/08/05 05:27:08;;;;;;;1.40;1.30;;;25.70;58.70;;;;;;219467;1283;22543;-52
2023/08/05 05:32:13;;;;;;;1.40;1.30;;;25.70;58.80;;;;;;219557;1283;22655;-55
2023/08/05 05:37:17;;;;;;;1.20;1.10;;;25.70;58.80;;;;;;219533;1282;22527;-53
2023/08/05 05:42:21;;;;;;;1.20;1.20;;;25.70;58.60;;;;;;219545;1286;22674;-53
2023/08/05 05:47:26;;;;;;;1.40;1.30;;;25.80;58.80;;;;;;219454;1273;22554;-53
2023/08/05 05:52:30;;;;;;;1.80;1.60;;;25.70;59.10;;;;;;219406;1286;25299;-55
2023/08/05 05:57:34;;;;;;;1.50;1.40;;;25.70;59.00;;;;;;219503;1286;23777;-57
2023/08/05 06:02:39;;;;;;;1.30;1.20;;;25.80;59.30;;;;;;219596;1283;22557;-58
2023/08/05 06:07:46;;;;;;;1.60;1.40;;;25.70;59.00;;;;;;219548;1273;22534;-57
2023/08/05 06:12:50;;;;;;;1.30;1.20;;;25.70;59.10;;;;;;219412;1280;24243;-57
2023/08/05 06:17:55;;;;;;;1.50;1.30;;;25.70;58.80;;;;;;219560;1286;24227;-56
2023/08/05 06:22:59;;;;;;;1.90;1.40;;;25.70;58.90;;;;;;219340;1281;23581;-56
2023/08/05 06:28:04;;;;;;;1.50;1.40;;;25.70;58.90;;;;;;219467;1283;24123;-57
2023/08/05 06:33:08;;;;;;;2.20;1.70;;;25.70;58.70;;;;;;219319;1283;24981;-57
2023/08/05 06:38:12;;;;;;;1.00;1.00;;;25.70;58.60;;;;;;219586;1283;22691;-56
2023/08/05 06:43:17;;;;;;;1.60;1.50;;;25.70;59.10;;;;;;219375;1280;22542;-55
2023/08/05 06:48:21;;;;;;;1.50;1.40;;;25.70;58.60;;;;;;219512;1283;22663;-57
2023/08/05 06:53:26;;;;;;;1.70;1.50;;;25.70;59.30;;;;;;219232;1286;22691;-56
2023/08/05 06:58:30;;;;;;;1.20;1.00;;;25.80;59.30;;;;;;219514;1280;25181;-58
2023/08/05 07:03:34;;;;;;;2.30;1.30;;;25.80;58.70;;;;;;219473;1280;22527;-58
2023/08/05 07:08:39;;;;;;;1.40;1.30;;;25.70;58.70;;;;;;219436;1286;24227;-57
2023/08/05 07:13:43;;;;;;;1.20;1.10;;;25.70;58.70;;;;;;219570;1286;24308;-57
2023/08/05 07:18:53;;;;;;;1.60;1.40;;;25.70;59.00;;;;;;219506;1274;22624;-57
2023/08/05 07:23:57;;;;;;;1.50;1.40;;;25.70;59.40;;;;;;219288;1280;22956;-56
2023/08/05 07:29:01;;;;;;;1.50;1.40;;;25.70;59.10;;;;;;219434;1286;22535;-56
2023/08/05 07:34:05;;;;;;;2.80;1.50;;;25.70;58.90;;;;;;219345;1274;24230;-57
2023/08/05 07:39:10;;;;;;;2.30;1.50;;;25.80;58.60;;;;;;219403;1285;22530;-57
2023/08/05 07:44:15;;;;;;;1.40;1.30;;;25.80;58.40;;;;;;219448;1287;22504;-57
2023/08/05 07:49:19;;;;;;;1.50;1.40;;;25.80;58.70;;;;;;219520;1272;23998;-60
2023/08/05 07:54:25;;;;;;;1.30;1.20;;;25.80;58.60;;;;;;219189;1280;22736;-56
2023/08/05 07:59:30;;;;;;;1.20;1.10;;;25.80;58.70;;;;;;219508;1286;22645;-56
2023/08/05 08:04:37;;;;;;;1.40;1.20;;;25.80;58.90;;;;;;219326;1283;22646;-56
2023/08/05 08:09:41;;;;;;;1.30;1.20;;;25.80;59.10;;;;;;219417;1280;25264;-57
2023/08/05 08:14:46;;;;;;;1.80;1.00;;;25.70;58.50;;;;;;219471;1282;22552;-56
2023/08/05 08:19:50;;;;;;;1.10;1.10;;;25.80;58.50;;;;;;219339;1286;22658;-56
2023/08/05 08:24:54;;;;;;;1.20;1.20;;;25.80;58.30;;;;;;219457;1286;22550;-54
2023/08/05 08:29:58;;;;;;;1.50;1.40;;;25.80;58.40;;;;;;219426;1283;22526;-52
2023/08/05 08:35:03;;;;;;;1.30;1.30;;;25.80;58.90;;;;;;219353;1283;24168;-55
2023/08/05 08:40:11;;;;;;;1.50;1.40;;;25.80;58.50;;;;;;219304;1280;22655;-50
2023/08/05 08:45:16;;;;;;;1.10;1.00;;;25.90;58.30;;;;;;219327;1286;22570;-54
2023/08/05 08:50:20;;;;;;;2.10;1.30;;;25.90;58.50;;;;;;219390;1280;22540;-54
2023/08/05 08:55:27;;;;;;;1.10;1.10;;;25.70;59.10;;;;;;219406;1283;26624;-50
2023/08/05 09:00:34;;;;;;;1.30;1.20;;;25.70;58.60;;;;;;219320;1286;25133;-52
2023/08/05 09:05:42;;;;;;;1.30;1.30;;;25.70;58.40;;;;;;219337;1286;22523;-55
2023/08/05 09:10:46;;;;;;;1.50;1.20;;;25.90;58.60;;;;;;219376;1285;25437;-52
2023/08/05 09:15:51;;;;;;;1.20;1.10;;;25.80;58.40;;;;;;219438;1286;22664;-55
2023/08/05 09:21:01;;;;;;;1.60;1.30;;;25.90;58.60;;;;;;219240;1283;25349;-55
2023/08/05 09:26:05;;;;;;;1.30;1.20;;;25.90;58.30;;;;;;219349;1274;23937;-55
2023/08/05 09:31:15;;;;;;;1.20;1.10;;;25.90;58.20;;;;;;219387;1280;22527;-54
2023/08/05 09:36:22;;;;;;;1.40;1.20;;;25.80;58.50;;;;;;219426;1283;24264;-53
2023/08/05 09:41:31;;;;;;;9.30;1.30;;;25.80;58.70;;;;;;219322;1279;23161;-52
2023/08/05 09:46:41;;;;;;;435.20;133.60;;;25.80;58.90;;;;;;219257;1281;22527;-54
2023/08/05 09:51:46;;;;;;;129.50;34.80;;;25.80;59.10;;;;;;219420;1283;22540;-54
2023/08/05 09:56:50;;;;;;;111.50;32.40;;;25.80;59.10;;;;;;219385;1283;24200;-55
2023/08/05 10:01:56;;;;;;;81.30;25.80;;;25.70;59.00;;;;;;219100;1274;22541;-54
2023/08/05 10:07:01;;;;;;;101.10;31.10;;;25.80;59.10;;;;;;219438;1273;22567;-54
2023/08/05 10:12:10;;;;;;;109.40;31.30;;;25.80;59.10;;;;;;219394;1283;23166;-55
2023/08/05 10:17:16;;;;;;;107.20;29.80;;;25.90;58.90;;;;;;219295;1280;25421;-54
2023/08/05 10:22:24;;;;;;;101.50;30.60;;;25.90;59.00;;;;;;219403;1280;23347;-54
2023/08/05 10:27:45;;;;;;;80.10;26.80;;;25.90;59.20;;;;;;219324;1283;25524;-52
2023/08/05 10:32:52;;;;;;;86.70;28.40;;;25.80;59.10;;;;;;219361;1274;24778;-57
2023/08/05 10:38:19;;;;;;;80.40;27.60;;;25.90;59.20;;;;;;219433;1285;22541;-56
2023/08/05 10:43:32;;;;;;;87.80;26.50;;;25.80;59.50;;;;;;219457;1286;22773;-53
2023/08/05 10:48:49;;;;;;;72.70;26.10;;;25.80;59.40;;;;;;219378;1277;22543;-51
2023/08/05 10:53:54;;;;;;;72.00;24.70;;;25.90;59.60;;;;;;219459;1280;22736;-49
2023/08/05 10:59:02;;;;;;;72.40;24.80;;;25.90;59.20;;;;;;219306;1283;25474;-53
2023/08/05 11:04:26;;;;;;;68.10;24.10;;;25.90;59.30;;;;;;219402;1280;25346;-52
2023/08/05 11:09:33;;;;;;;66.50;22.80;;;25.90;59.50;;;;;;219416;1280;26182;-53
2023/08/05 11:14:38;;;;;;;69.90;23.40;;;25.90;59.30;;;;;;219366;1279;22537;-53
2023/08/05 11:19:56;;;;;;;63.20;24.10;;;25.90;59.30;;;;;;219575;1286;24683;-52
2023/08/05 11:25:02;;;;;;;65.80;22.40;;;25.80;59.40;;;;;;219567;1285;22882;-53
2023/08/05 11:30:14;;;;;;;67.20;22.20;;;25.90;59.40;;;;;;219416;1283;24109;-53
2023/08/05 11:35:19;;;;;;;53.70;20.80;;;26.00;59.30;;;;;;219461;1279;24198;-50
2023/08/05 11:40:26;;;;;;;64.50;22.60;;;25.90;59.30;;;;;;219282;1286;25425;-53
2023/08/05 11:45:31;;;;;;;47.40;20.00;;;25.80;59.40;;;;;;219376;1285;25204;-56
2023/08/05 11:50:36;;;;;;;50.20;20.50;;;25.80;59.90;;;;;;219362;1286;22560;-54
2023/08/05 11:55:42;;;;;;;59.40;21.50;;;26.00;59.60;;;;;;219271;1287;22653;-54
2023/08/05 12:00:51;;;;;;;50.80;20.60;;;26.00;59.00;;;;;;219357;1283;24078;-54
2023/08/05 12:06:00;;;;;;;50.40;20.60;;;25.90;59.50;;;;;;219488;1284;22566;-55
2023/08/05 12:11:05;;;;;;;43.00;19.40;;;25.80;59.70;;;;;;219517;1273;22532;-56
2023/08/05 12:16:17;;;;;;;40.70;17.70;;;25.80;59.70;;;;;;219312;1283;24231;-55
2023/08/05 12:21:21;;;;;;;47.50;19.90;;;25.80;60.00;;;;;;219335;1280;23033;-53
2023/08/05 12:26:29;;;;;;;49.30;18.80;;;25.80;59.80;;;;;;219424;1286;24234;-55
2023/08/05 12:31:34;;;;;;;38.40;16.70;;;26.00;59.60;;;;;;219520;1282;24534;-53
2023/08/05 12:36:39;;;;;;;40.80;16.20;;;25.80;59.60;;;;;;219328;1283;22878;-54
2023/08/05 12:41:43;;;;;;;35.00;13.80;;;25.70;60.10;;;;;;219462;1287;24267;-49
2023/08/05 12:46:47;;;;;;;21.30;10.20;;;25.40;62.50;;;;;;219259;1283;22616;-46
2023/08/05 12:51:52;;;;;;;11.40;7.80;;;25.20;63.40;;;;;;219191;1286;22529;-45
2023/08/05 12:57:00;;;;;;;10.30;7.30;;;25.30;64.20;;;;;;219260;1283;22537;-43
2023/08/05 13:02:04;;;;;;;8.30;7.10;;;25.00;65.70;;;;;;219197;1283;24201;-45
2023/08/05 13:07:11;;;;;;;8.30;7.40;;;24.80;66.20;;;;;;219380;1281;22530;-43
2023/08/05 13:12:15;;;;;;;7.60;6.90;;;24.70;67.00;;;;;;219204;1264;22649;-45
2023/08/05 13:17:22;;;;;;;9.90;7.30;;;24.50;67.20;;;;;;219333;1277;24297;-46
2023/08/05 13:22:27;;;;;;;7.10;6.50;;;24.50;67.50;;;;;;219295;1280;22563;-46
2023/08/05 13:27:33;;;;;;;8.00;6.40;;;24.30;68.00;;;;;;219278;1280;22549;-43
2023/08/05 13:32:37;;;;;;;9.90;5.80;;;24.20;68.30;;;;;;219331;1273;22537;-46
2023/08/05 13:37:41;;;;;;;6.10;5.00;;;24.30;68.70;;;;;;219371;1283;24186;-45
2023/08/05 13:42:46;;;;;;;5.00;4.60;;;24.50;67.30;;;;;;219322;1274;24294;-45
2023/08/05 13:47:52;;;;;;;5.20;4.30;;;24.50;66.60;;;;;;219281;1286;23931;-44
2023/08/05 13:52:56;;;;;;;4.70;3.80;;;24.50;66.70;;;;;;219391;1286;24235;-47
2023/08/05 13:58:01;;;;;;;4.00;3.40;;;24.50;66.40;;;;;;219338;1283;22656;-46
2023/08/05 14:03:07;;;;;;;4.30;3.30;;;24.50;65.90;;;;;;219325;1281;22533;-45
2023/08/05 14:08:12;;;;;;;5.20;2.90;;;24.50;66.30;;;;;;219060;1283;22520;-50
2023/08/05 14:13:17;;;;;;;6.50;3.60;;;24.50;65.80;;;;;;219424;1281;198539;-46
2023/08/05 14:18:22;;;;;;;3.30;3.10;;;24.40;66.30;;;;;;219413;1283;25624;-46
2023/08/05 14:23:26;;;;;;;3.70;2.70;;;24.40;66.10;;;;;;219310;1284;25434;-46
2023/08/05 14:28:31;;;;;;;2.70;2.50;;;24.50;66.40;;;;;;219200;1274;22552;-45
2023/08/05 14:33:35;;;;;;;3.40;3.00;;;24.50;65.50;;;;;;219247;1285;24505;-47
2023/08/05 14:38:39;;;;;;;2.10;1.90;;;24.60;65.20;;;;;;219491;1279;22521;-47
2023/08/05 14:43:44;;;;;;;4.40;3.20;;;24.60;65.80;;;;;;219140;1283;25557;-45
2023/08/05 14:48:48;;;;;;;13.50;4.50;;;24.60;65.30;;;;;;219307;1286;24975;-46
2023/08/05 14:53:52;;;;;;;3.90;2.80;;;24.60;66.50;;;;;;219394;1285;24202;-47
2023/08/05 14:58:56;;;;;;;4.30;2.50;;;24.60;66.60;;;;;;219503;1272;22742;-49
2023/08/05 15:04:02;;;;;;;3.90;2.60;;;24.60;66.20;;;;;;219386;1279;22570;-48
2023/08/05 15:09:06;;;;;;;2.50;2.30;;;24.70;65.90;;;;;;219411;1280;24343;-46
2023/08/05 15:14:11;;;;;;;3.20;2.40;;;24.70;66.10;;;;;;219245;1285;23037;-47
2023/08/05 15:19:15;;;;;;;3.30;2.40;;;24.80;66.30;;;;;;219467;1277;22703;-47
2023/08/05 15:24:19;;;;;;;3.80;2.00;;;25.00;65.60;;;;;;219161;1280;24087;-48
2023/08/05 15:29:23;;;;;;;2.80;2.50;;;25.10;65.50;;;;;;220079;1279;22614;-47
2023/08/05 15:34:32;;;;;;;6.10;2.70;;;25.20;65.20;;;;;;220201;1281;24196;-46
2023/08/05 15:39:36;;;;;;;9.00;6.20;;;25.10;64.70;;;;;;219422;1287;22602;-47
2023/08/05 15:44:40;;;;;;;4.20;3.90;;;25.30;64.20;;;;;;219211;1287;22608;-48
2023/08/05 15:49:44;;;;;;;4.80;4.40;;;25.30;63.70;;;;;;219315;1283;26655;-48
2023/08/05 15:54:50;;;;;;;3.50;3.20;;;25.30;64.10;;;;;;219224;1277;22547;-46
2023/08/05 15:59:55;;;;;;;2.70;2.50;;;25.20;65.10;;;;;;219351;1285;22588;-49
2023/08/05 16:04:59;;;;;;;5.70;3.60;;;25.20;65.60;;;;;;219454;1281;22598;-49
2023/08/05 16:10:06;;;;;;;5.60;3.10;;;25.10;65.00;;;;;;219254;1280;24249;-46
2023/08/05 16:15:11;;;;;;;4.80;3.40;;;25.30;65.10;;;;;;224145;1279;22550;-49
2023/08/05 16:20:16;;;;;;;4.00;3.70;;;25.40;64.50;;;;;;219405;1287;24227;-48
2023/08/05 16:25:20;;;;;;;6.90;3.00;;;25.40;64.50;;;;;;219367;1285;22537;-49
2023/08/05 16:30:25;;;;;;;7.40;3.20;;;25.40;64.90;;;;;;219166;1273;23910;-56
2023/08/05 16:35:30;;;;;;;5.60;3.00;;;25.40;64.70;;;;;;222728;1285;25421;-59
2023/08/05 16:40:35;;;;;;;7.00;3.30;;;25.60;64.40;;;;;;219242;1283;23908;-60
2023/08/05 16:45:40;;;;;;;3.50;3.00;;;25.60;64.70;;;;;;218796;1279;24238;-51
2023/08/05 16:50:45;;;;;;;3.50;3.00;;;25.70;64.80;;;;;;219007;1283;22586;-51
2023/08/05 16:55:50;;;;;;;7.40;3.40;;;25.60;65.40;;;;;;218979;1281;25421;-46
2023/08/05 17:00:56;;;;;;;4.50;2.70;;;25.60;65.20;;;;;;219264;1279;24260;-48
2023/08/05 17:06:01;;;;;;;4.20;2.90;;;25.70;64.70;;;;;;219296;1280;22566;-45
2023/08/05 17:11:06;;;;;;;3.00;2.80;;;25.70;64.80;;;;;;219136;1280;25488;-46
2023/08/05 17:16:10;;;;;;;3.60;3.00;;;25.60;65.30;;;;;;218869;1264;24829;-46
2023/08/05 17:21:15;;;;;;;4.30;3.10;;;25.70;65.20;;;;;;218998;1280;22634;-47
2023/08/05 17:26:20;;;;;;;3.40;3.20;;;25.80;65.20;;;;;;219336;1264;24185;-47
2023/08/05 17:31:24;;;;;;;3.80;2.90;;;25.80;64.60;;;;;;219245;1282;25316;-44
2023/08/05 17:36:29;;;;;;;3.10;2.70;;;25.70;65.10;;;;;;219071;1283;22658;-48
2023/08/05 17:41:33;;;;;;;5.30;2.70;;;25.80;65.10;;;;;;219420;1279;22543;-46
2023/08/05 17:46:38;;;;;;;4.20;2.70;;;25.70;65.40;;;;;;219293;1283;25233;-44
2023/08/05 17:51:43;;;;;;;2.90;2.10;;;25.70;65.30;;;;;;219183;1286;24371;-45
2023/08/05 17:56:49;;;;;;;3.80;2.30;;;25.70;65.40;;;;;;219193;1277;22655;-46
2023/08/05 18:01:54;;;;;;;4.10;2.30;;;25.90;65.40;;;;;;219301;1280;22557;-45
2023/08/05 18:06:59;;;;;;;3.10;2.00;;;25.90;65.20;;;;;;219329;1282;22556;-44
2023/08/05 18:12:04;;;;;;;6.20;2.60;;;25.90;65.30;;;;;;219655;1283;23944;-46
2023/08/05 18:17:09;;;;;;;7.00;2.50;;;25.80;66.50;;;;;;219459;1274;24313;-44
2023/08/05 18:22:13;;;;;;;3.90;2.50;;;25.70;66.10;;;;;;219452;1286;22553;-45
2023/08/05 18:27:18;;;;;;;7.70;3.00;;;25.80;65.80;;;;;;219496;1274;25547;-45
2023/08/05 18:32:23;;;;;;;8.90;3.10;;;26.00;66.70;;;;;;219363;1279;22545;-45
2023/08/05 18:37:27;;;;;;;9.50;2.80;;;25.90;66.70;;;;;;219516;1263;22562;-43
2023/08/05 18:42:34;;;;;;;3.90;2.20;;;25.80;66.00;;;;;;219482;1263;26162;-44
2023/08/05 18:47:40;;;;;;;8.50;2.60;;;25.90;65.70;;;;;;219615;1271;24289;-47
2023/08/05 18:52:48;;;;;;;4.80;2.60;;;25.90;65.60;;;;;;219458;1273;24278;-43
2023/08/05 18:57:54;;;;;;;6.60;2.10;;;25.70;66.00;;;;;;219495;1282;26657;-44
2023/08/05 19:02:58;;;;;;;5.10;2.10;;;25.50;66.60;;;;;;219421;1276;22532;-44
2023/08/05 19:08:04;;;;;;;11.20;2.70;;;25.40;66.90;;;;;;219709;1270;22556;-45
2023/08/05 19:13:10;;;;;;;6.00;2.10;;;25.40;67.10;;;;;;219793;1280;22537;-46
2023/08/05 19:18:16;;;;;;;9.80;2.10;;;25.40;67.60;;;;;;219444;1280;24143;-47
2023/08/05 19:23:24;;;;;;;6.30;2.10;;;25.40;66.90;;;;;;219745;1280;25597;-47
2023/08/05 19:28:29;;;;;;;4.50;2.20;;;25.40;67.00;;;;;;219437;1280;24227;-46
2023/08/05 19:33:40;;;;;;;5.80;2.10;;;25.40;67.10;;;;;;219420;1283;22527;-44
2023/08/05 19:38:46;;;;;;;7.90;2.30;;;25.40;67.60;;;;;;219691;1280;23836;-47
2023/08/05 19:43:52;;;;;;;5.10;2.00;;;25.40;66.90;;;;;;218881;1277;24241;-45
2023/08/05 19:48:57;;;;;;;2.10;1.70;;;25.40;67.30;;;;;;218628;1283;24548;-46
2023/08/05 19:54:03;;;;;;;5.00;1.80;;;25.40;67.20;;;;;;219163;1283;22604;-51
2023/08/05 19:59:08;;;;;;;4.80;1.90;;;25.40;67.10;;;;;;219043;1283;22606;-46
2023/08/05 20:04:13;;;;;;;4.40;2.70;;;25.40;67.30;;;;;;218826;1285;25396;-49
2023/08/05 20:09:18;;;;;;;6.70;2.00;;;25.50;67.20;;;;;;218758;1286;22570;-49
2023/08/05 20:14:22;;;;;;;6.90;1.90;;;25.40;67.00;;;;;;218757;1284;26606;-48
2023/08/05 20:19:27;;;;;;;10.20;3.40;;;25.60;66.80;;;;;;218766;1286;22608;-47
2023/08/05 20:24:31;;;;;;;12.10;3.00;;;25.80;70.00;;;;;;219323;1286;22544;-48
2023/08/05 20:29:36;;;;;;;11.70;4.80;;;25.90;68.00;;;;;;219478;1281;25685;-48
2023/08/05 20:34:41;;;;;;;10.90;2.10;;;25.70;67.40;;;;;;219425;1274;24567;-49
2023/08/05 20:39:49;;;;;;;8.30;2.80;;;25.60;67.10;;;;;;219292;1280;22553;-54
2023/08/05 20:44:53;;;;;;;4.10;2.00;;;25.40;66.40;;;;;;219467;1283;25369;-49
2023/08/05 20:49:58;;;;;;;2.20;2.00;;;24.60;64.20;;;;;;219261;1274;22646;-48
2023/08/05 20:55:03;;;;;;;12.90;3.10;;;24.20;64.30;;;;;;219628;1273;25484;-52
2023/08/05 21:00:08;;;;;;;4.50;2.20;;;23.90;64.80;;;;;;219556;1280;25432;-48
2023/08/05 21:05:13;;;;;;;4.30;2.20;;;23.70;65.10;;;;;;219216;1272;22552;-51
2023/08/05 21:10:17;;;;;;;4.10;1.60;;;24.20;64.10;;;;;;219293;1277;22548;-47
2023/08/05 21:15:21;;;;;;;8.00;2.40;;;24.50;63.70;;;;;;219378;1286;24228;-51
2023/08/05 21:20:29;;;;;;;4.90;1.70;;;24.60;63.00;;;;;;219203;1274;24383;-49
2023/08/05 21:25:33;;;;;;;2.20;2.10;;;24.60;63.20;;;;;;219482;1280;22529;-53
2023/08/05 21:30:37;;;;;;;3.50;2.20;;;24.60;63.20;;;;;;219304;1280;22537;-47
2023/08/05 21:35:42;;;;;;;5.40;2.10;;;24.60;63.10;;;;;;219281;1273;25433;-47
2023/08/05 21:40:48;;;;;;;5.50;1.90;;;24.60;63.30;;;;;;219095;1279;22549;-46
2023/08/05 21:45:59;;;;;;;3.00;2.00;;;24.60;63.10;;;;;;219404;1280;24265;-50
2023/08/05 21:51:03;;;;;;;2.20;1.60;;;24.50;63.10;;;;;;219328;1279;24217;-47
2023/08/05 21:56:08;;;;;;;4.80;2.00;;;24.60;63.00;;;;;;219344;1280;23962;-49
2023/08/05 22:01:15;;;;;;;5.10;2.00;;;24.60;62.80;;;;;;219711;1273;23924;-50
2023/08/05 22:06:19;;;;;;;3.30;1.70;;;24.60;62.90;;;;;;219487;1280;24219;-51
2023/08/05 22:11:25;;;;;;;2.80;1.70;;;24.50;62.90;;;;;;219607;1279;22547;-51
2023/08/05 22:16:31;;;;;;;3.90;1.90;;;24.50;63.00;;;;;;219427;1280;23958;-46
2023/08/05 22:21:35;;;;;;;1.70;1.60;;;24.40;62.60;;;;;;219561;1276;22530;-49
2023/08/05 22:26:42;;;;;;;2.50;1.40;;;24.40;63.00;;;;;;219312;1273;23905;-47
2023/08/05 22:31:46;;;;;;;1.50;1.40;;;24.30;62.50;;;;;;219349;1279;22660;-49
2023/08/05 22:36:51;;;;;;;2.40;1.10;;;24.30;63.10;;;;;;219643;1280;22537;-47
2023/08/05 22:41:56;;;;;;;2.40;1.10;;;24.30;62.60;;;;;;219037;1273;24313;-47
2023/08/05 22:47:02;;;;;;;2.00;1.30;;;24.30;62.60;;;;;;220645;1273;22546;-58
2023/08/05 22:52:07;;;;;;;4.00;1.60;;;24.40;62.50;;;;;;219300;1282;22629;-63
2023/08/05 22:57:11;;;;;;;1.10;1.10;;;24.60;62.50;;;;;;219539;1283;22828;-63
2023/08/05 23:02:15;;;;;;;1.90;1.40;;;24.60;62.40;;;;;;219271;1276;22544;-63
2023/08/05 23:07:22;;;;;;;2.00;1.30;;;24.60;62.40;;;;;;219483;1280;22558;-64
2023/08/05 23:12:26;;;;;;;1.90;1.40;;;24.70;63.40;;;;;;219596;1279;22552;-63
2023/08/05 23:17:31;;;;;;;1.70;1.20;;;24.70;62.90;;;;;;219127;1279;22526;-62
2023/08/05 23:22:38;;;;;;;1.10;1.00;;;24.70;63.10;;;;;;219319;1273;22529;-62
2023/08/05 23:27:47;;;;;;;1.30;1.20;;;24.70;63.00;;;;;;219455;1280;24424;-60
2023/08/05 23:32:51;;;;;;;1.00;1.00;;;24.80;63.00;;;;;;219386;1282;22566;-61
2023/08/05 23:37:55;;;;;;;1.10;1.10;;;24.80;63.00;;;;;;219455;1280;22655;-60
2023/08/05 23:43:02;;;;;;;1.00;1.00;;;24.80;63.10;;;;;;219111;1274;22527;-61
2023/08/05 23:48:07;;;;;;;2.70;1.10;;;24.70;63.20;;;;;;219132;1273;22559;-61
2023/08/05 23:53:15;;;;;;;1.60;1.20;;;24.70;63.20;;;;;;219421;1274;24250;-61
2023/08/05 23:58:19;;;;;;;1.40;1.30;;;24.70;63.20;;;;;;219533;1279;22752;-60
